createdAt,value
2017-10-30T00:01:06.507Z,96985.23
2017-10-30T00:03:32.272Z,96993.92
2017-10-30T00:05:58.077Z,96997.70
2017-10-30T00:08:23.835Z,96998.56
2017-10-30T00:10:49.592Z,96996.75
2017-10-30T00:13:15.344Z,97004.20
2017-10-30T00:15:41.127Z,96994.43
2017-10-30T00:18:06.883Z,97001.02
2017-10-30T00:20:32.639Z,96996.36
2017-10-30T00:22:58.416Z,96993.61
2017-10-30T00:25:24.187Z,97001.91
2017-10-30T00:27:49.965Z,96998.09
2017-10-30T00:30:15.740Z,96994.73
2017-10-30T00:32:41.527Z,97000.92
2017-10-30T00:35:07.292Z,97002.27
2017-10-30T00:37:33.058Z,96998.31
2017-10-30T00:39:58.849Z,97004.84
2017-10-30T00:42:24.611Z,97007.34
2017-10-30T00:44:50.372Z,97004.80
2017-10-30T00:47:16.156Z,97011.55
2017-10-30T00:49:41.925Z,97015.13
2017-10-30T00:52:07.672Z,97021.45
2017-10-30T00:54:33.436Z,97023.39
2017-10-30T00:56:59.207Z,97029.37
2017-10-30T00:59:24.967Z,97026.19
2017-10-30T01:01:50.740Z,97031.95
2017-10-30T01:04:16.527Z,97029.11
2017-10-30T01:06:42.284Z,97028.72
2017-10-30T01:09:08.020Z,97026.70
2017-10-30T01:11:33.800Z,97028.89
2017-10-30T01:13:59.564Z,97027.98
2017-10-30T01:16:25.348Z,97021.20
2017-10-30T01:18:51.183Z,97033.77
2017-10-30T01:21:16.941Z,97035.18
2017-10-30T01:23:42.729Z,97041.33
2017-10-30T01:26:08.485Z,97042.14
2017-10-30T01:28:34.272Z,97039.69
2017-10-30T01:31:00.060Z,97036.98
2017-10-30T01:33:25.886Z,97036.65
2017-10-30T01:35:51.650Z,97033.55
2017-10-30T01:38:17.413Z,97035.57
2017-10-30T01:40:43.182Z,97037.38
2017-10-30T01:43:08.952Z,97037.13
2017-10-30T01:45:34.718Z,97034.88
2017-10-30T01:48:00.564Z,97034.45
2017-10-30T01:50:26.341Z,97036.67
2017-10-30T01:52:52.099Z,97029.75
2017-10-30T01:55:17.889Z,97032.16
2017-10-30T01:57:43.694Z,97039.20
2017-10-30T02:00:09.472Z,97038.84
2017-10-30T02:02:35.304Z,97038.77
2017-10-30T02:05:01.056Z,97037.27
2017-10-30T02:07:26.818Z,97038.30
2017-10-30T02:09:52.604Z,97040.45
2017-10-30T02:12:18.380Z,97045.67
2017-10-30T02:14:44.173Z,97051.07
2017-10-30T02:17:09.962Z,97050.61
2017-10-30T02:19:35.747Z,97049.32
2017-10-30T02:22:01.524Z,97047.88
2017-10-30T02:24:27.307Z,97047.36
2017-10-30T02:26:53.057Z,97048.09
2017-10-30T02:29:18.869Z,97057.72
2017-10-30T02:31:44.642Z,97055.77
2017-10-30T02:34:10.398Z,97060.61
2017-10-30T02:36:36.190Z,97067.53
2017-10-30T02:39:01.978Z,97068.31
2017-10-30T02:41:27.806Z,97071.71
2017-10-30T02:43:53.591Z,97072.41
2017-10-30T02:46:19.376Z,97072.77
2017-10-30T02:48:45.184Z,97081.79
2017-10-30T02:51:10.950Z,97077.69
2017-10-30T02:53:36.751Z,97074.64
2017-10-30T02:56:02.504Z,97075.38
2017-10-30T02:58:28.320Z,97074.95
2017-10-30T03:00:54.134Z,97082.34
2017-10-30T03:03:19.909Z,97089.27
2017-10-30T03:05:45.704Z,97084.17
2017-10-30T03:08:11.496Z,97092.53
2017-10-30T03:10:37.286Z,97091.83
2017-10-30T03:13:03.063Z,97094.53
2017-10-30T03:15:28.846Z,97096.92
2017-10-30T03:17:54.643Z,97099.50
2017-10-30T03:20:20.407Z,97102.98
2017-10-30T03:22:47.710Z,97103.80
2017-10-30T03:25:13.718Z,97104.80
2017-10-30T03:27:40.343Z,97103.34
2017-10-30T03:30:06.165Z,97105.98
2017-10-30T03:32:31.939Z,97114.73
2017-10-30T03:34:57.736Z,97109.87
2017-10-30T03:37:23.529Z,97120.72
2017-10-30T03:39:49.298Z,97114.99
2017-10-30T03:42:15.079Z,97111.50
2017-10-30T03:44:40.891Z,97118.14
2017-10-30T03:47:06.703Z,97119.27
2017-10-30T03:49:32.515Z,97116.21
2017-10-30T03:51:58.311Z,97123.22
2017-10-30T03:54:24.083Z,97121.84
2017-10-30T03:56:49.883Z,97127.64
2017-10-30T03:59:15.639Z,97133.02
2017-10-30T04:01:41.424Z,97134.20
2017-10-30T04:04:07.227Z,97129.82
2017-10-30T04:06:33.015Z,97130.77
2017-10-30T04:08:58.801Z,97130.58
2017-10-30T04:11:24.563Z,97135.14
2017-10-30T04:13:53.496Z,97139.53
2017-10-30T04:16:19.235Z,97140.35
2017-10-30T04:18:44.982Z,97135.41
2017-10-30T04:21:10.750Z,97137.52
2017-10-30T04:23:36.513Z,97135.17
2017-10-30T04:26:02.312Z,97143.95
2017-10-30T04:28:28.071Z,97140.73
2017-10-30T04:30:53.860Z,97156.18
2017-10-30T04:33:19.639Z,97151.57
2017-10-30T04:35:45.413Z,97150.91
2017-10-30T04:38:11.199Z,97152.55
2017-10-30T04:40:36.973Z,97158.58
2017-10-30T04:43:02.731Z,97162.69
2017-10-30T04:45:28.499Z,97165.89
2017-10-30T04:47:54.279Z,97166.32
2017-10-30T04:50:20.036Z,97159.70
2017-10-30T04:52:45.801Z,97159.66
2017-10-30T04:55:11.576Z,97170.81
2017-10-30T04:57:37.343Z,97172.06
2017-10-30T05:00:03.312Z,97164.29
2017-10-30T05:02:29.091Z,97165.19
2017-10-30T05:04:54.845Z,97172.82
2017-10-30T05:07:20.615Z,97180.41
2017-10-30T05:09:46.372Z,97183.84
2017-10-30T05:12:12.122Z,97181.41
2017-10-30T05:14:37.889Z,97185.55
2017-10-30T05:17:03.668Z,97185.88
2017-10-30T05:19:29.436Z,97187.34
2017-10-30T05:21:55.221Z,97189.28
2017-10-30T05:24:20.979Z,97192.70
2017-10-30T05:26:46.789Z,97196.82
2017-10-30T05:29:12.543Z,97197.64
2017-10-30T05:31:38.314Z,97203.92
2017-10-30T05:34:04.092Z,97195.61
2017-10-30T05:36:29.887Z,97196.66
2017-10-30T05:38:55.704Z,97200.34
2017-10-30T05:41:22.117Z,97205.64
2017-10-30T05:43:47.883Z,97210.26
2017-10-30T05:46:13.630Z,97209.05
2017-10-30T05:48:39.422Z,97208.41
2017-10-30T05:51:05.215Z,97206.80
2017-10-30T05:53:30.984Z,97207.47
2017-10-30T05:55:56.781Z,97208.06
2017-10-30T05:58:22.595Z,97213.30
2017-10-30T06:00:48.384Z,97222.66
2017-10-30T06:03:14.129Z,97223.76
2017-10-30T06:05:39.951Z,97220.31
2017-10-30T06:08:05.776Z,97216.94
2017-10-30T06:10:31.543Z,97218.89
2017-10-30T06:12:57.339Z,97226.87
2017-10-30T06:15:23.307Z,97233.38
2017-10-30T06:17:49.051Z,97231.03
2017-10-30T06:20:14.842Z,97241.72
2017-10-30T06:22:40.607Z,97254.00
2017-10-30T06:25:06.358Z,97251.57
2017-10-30T06:27:32.171Z,97248.58
2017-10-30T06:29:57.971Z,97253.05
2017-10-30T06:32:23.763Z,97262.59
2017-10-30T06:34:49.583Z,97264.20
2017-10-30T06:37:15.335Z,97267.16
2017-10-30T06:39:41.123Z,97273.25
2017-10-30T06:42:06.879Z,97275.88
2017-10-30T06:44:32.663Z,97275.06
2017-10-30T06:46:58.420Z,97279.76
2017-10-30T06:49:24.188Z,97288.73
2017-10-30T06:51:49.946Z,97286.50
2017-10-30T06:54:15.728Z,97280.40
2017-10-30T06:56:41.573Z,97280.27
2017-10-30T06:59:07.316Z,97284.22
2017-10-30T07:01:33.099Z,97293.36
2017-10-30T07:03:58.863Z,97294.58
2017-10-30T07:06:24.632Z,97293.97
2017-10-30T07:08:50.412Z,97298.25
2017-10-30T07:11:16.190Z,97306.75
2017-10-30T07:13:41.989Z,97296.56
2017-10-30T07:16:07.796Z,97301.13
2017-10-30T07:18:33.564Z,97308.77
2017-10-30T07:20:59.343Z,97311.36
2017-10-30T07:23:25.098Z,97316.97
2017-10-30T07:25:50.867Z,97322.97
2017-10-30T07:28:16.656Z,97325.30
2017-10-30T07:30:42.445Z,97321.20
2017-10-30T07:33:08.212Z,97327.63
2017-10-30T07:35:33.999Z,97326.94
2017-10-30T07:37:59.751Z,97326.70
2017-10-30T07:40:25.518Z,97337.00
2017-10-30T07:42:51.300Z,97335.35
2017-10-30T07:45:17.088Z,97335.83
2017-10-30T07:47:46.808Z,97330.89
2017-10-30T07:50:12.579Z,97332.50
2017-10-30T07:52:38.388Z,97331.47
2017-10-30T07:55:04.171Z,97325.37
2017-10-30T07:57:29.952Z,97329.77
2017-10-30T07:59:55.748Z,97338.97
2017-10-30T08:02:21.548Z,97337.21
2017-10-30T08:04:47.522Z,97333.72
2017-10-30T08:07:13.396Z,97323.97
2017-10-30T08:09:39.173Z,97324.17
2017-10-30T08:12:04.944Z,97327.32
2017-10-30T08:14:30.720Z,97322.69
2017-10-30T08:16:56.552Z,97307.46
2017-10-30T08:19:22.329Z,97317.91
2017-10-30T08:21:48.119Z,97320.72
2017-10-30T08:24:13.906Z,97317.80
2017-10-30T08:26:39.692Z,97322.19
2017-10-30T08:29:05.572Z,97329.02
2017-10-30T08:31:31.386Z,97329.28
2017-10-30T08:33:57.147Z,97332.73
2017-10-30T08:36:22.947Z,97331.59
2017-10-30T08:38:48.715Z,97339.28
2017-10-30T08:41:14.508Z,97339.01
2017-10-30T08:43:40.307Z,97332.38
2017-10-30T08:46:06.074Z,97339.59
2017-10-30T08:48:31.837Z,97337.75
2017-10-30T08:50:57.685Z,97349.30
2017-10-30T08:53:23.490Z,97353.27
2017-10-30T08:55:49.288Z,97350.42
2017-10-30T08:58:15.065Z,97353.47
2017-10-30T09:00:40.881Z,97356.30
2017-10-30T09:03:06.684Z,97355.33
2017-10-30T09:05:32.458Z,97359.91
2017-10-30T09:07:58.244Z,97360.11
2017-10-30T09:10:24.036Z,97360.61
2017-10-30T09:12:49.823Z,97360.09
2017-10-30T09:15:15.583Z,97358.84
2017-10-30T09:17:41.375Z,97363.09
2017-10-30T09:20:07.145Z,97360.64
2017-10-30T09:22:32.931Z,97366.00
2017-10-30T09:24:58.748Z,97368.86
2017-10-30T09:27:24.559Z,97365.14
2017-10-30T09:29:50.315Z,97369.03
2017-10-30T09:32:16.113Z,97369.52
2017-10-30T09:34:41.916Z,97367.31
2017-10-30T09:37:07.694Z,97360.97
2017-10-30T09:39:33.472Z,97367.56
2017-10-30T09:41:59.251Z,97365.64
2017-10-30T09:44:25.052Z,97371.78
2017-10-30T09:46:50.809Z,97376.91
2017-10-30T09:49:16.602Z,97375.20
2017-10-30T09:51:42.395Z,97374.92
2017-10-30T09:54:08.168Z,97373.91
2017-10-30T09:56:33.974Z,97373.66
2017-10-30T09:58:59.748Z,97375.27
2017-10-30T10:01:25.523Z,97361.76
2017-10-30T10:03:51.347Z,97364.58
2017-10-30T10:06:17.127Z,97364.19
2017-10-30T10:08:42.896Z,97367.45
2017-10-30T10:11:08.712Z,97370.52
2017-10-30T10:13:34.582Z,97371.27
2017-10-30T10:16:00.416Z,97367.70
2017-10-30T10:18:26.187Z,97366.41
2017-10-30T10:20:51.980Z,97364.58
2017-10-30T10:23:17.759Z,97363.16
2017-10-30T10:25:43.547Z,97371.91
2017-10-30T10:28:09.303Z,97376.86
2017-10-30T10:30:35.097Z,97378.63
2017-10-30T10:33:00.890Z,97382.23
2017-10-30T10:35:26.659Z,97374.86
2017-10-30T10:37:52.424Z,97375.75
2017-10-30T10:40:18.296Z,97367.80
2017-10-30T10:42:44.079Z,97373.30
2017-10-30T10:45:09.844Z,97368.48
2017-10-30T10:47:35.665Z,97364.05
2017-10-30T10:50:01.450Z,97360.56
2017-10-30T10:52:27.261Z,97359.39
2017-10-30T10:54:53.019Z,97375.28
2017-10-30T10:57:18.787Z,97372.21
2017-10-30T10:59:44.546Z,97372.77
2017-10-30T11:02:10.348Z,97365.16
2017-10-30T11:04:36.124Z,97366.18
2017-10-30T11:07:01.887Z,97358.64
2017-10-30T11:09:27.665Z,97357.98
2017-10-30T11:11:53.455Z,97369.95
2017-10-30T11:14:19.223Z,97367.91
2017-10-30T11:16:45.003Z,97367.58
2017-10-30T11:19:10.855Z,97367.61
2017-10-30T11:21:36.653Z,97363.31
2017-10-30T11:24:02.455Z,97358.50
2017-10-30T11:26:28.204Z,97368.98
2017-10-30T11:28:54.021Z,97374.09
2017-10-30T11:31:19.791Z,97375.50
2017-10-30T11:33:45.551Z,97367.58
2017-10-30T11:36:11.319Z,97379.47
2017-10-30T11:38:37.087Z,97378.20
2017-10-30T11:41:02.899Z,97374.03
2017-10-30T11:43:28.670Z,97380.17
2017-10-30T11:45:54.481Z,97382.56
2017-10-30T11:48:20.290Z,97385.83
2017-10-30T11:50:46.059Z,97386.24
2017-10-30T11:53:11.848Z,97380.61
2017-10-30T11:55:37.654Z,97381.70
2017-10-30T11:58:04.167Z,97379.49
2017-10-30T12:00:29.945Z,97383.00
2017-10-30T12:02:55.749Z,97383.28
2017-10-30T12:05:21.496Z,97393.30
2017-10-30T12:07:47.288Z,97392.77
2017-10-30T12:10:13.044Z,97389.73
2017-10-30T12:12:39.002Z,97393.29
2017-10-30T12:15:04.839Z,97392.37
2017-10-30T12:17:30.619Z,97385.35
2017-10-30T12:19:56.410Z,97386.80
2017-10-30T12:22:22.187Z,97389.45
2017-10-30T12:24:47.935Z,97386.91
2017-10-30T12:27:13.715Z,97389.41
2017-10-30T12:29:39.496Z,97389.09
2017-10-30T12:32:05.278Z,97388.23
2017-10-30T12:34:31.042Z,97388.72
2017-10-30T12:36:56.795Z,97388.98
2017-10-30T12:39:22.624Z,97391.25
2017-10-30T12:41:48.375Z,97387.63
2017-10-30T12:44:14.163Z,97391.91
2017-10-30T12:46:39.913Z,97390.71
2017-10-30T12:49:05.699Z,97387.28
2017-10-30T12:51:31.503Z,97389.26
2017-10-30T12:53:57.275Z,97394.23
2017-10-30T12:56:23.075Z,97399.82
2017-10-30T12:58:48.875Z,97394.16
2017-10-30T13:01:14.677Z,97398.95
2017-10-30T13:03:40.447Z,97398.60
2017-10-30T13:06:06.202Z,97400.53
2017-10-30T13:08:31.983Z,97404.40
2017-10-30T13:10:57.765Z,97404.50
2017-10-30T13:13:23.550Z,97412.03
2017-10-30T13:15:49.322Z,97403.11
2017-10-30T13:18:15.095Z,97412.67
2017-10-30T13:20:40.884Z,97417.86
2017-10-30T13:23:06.668Z,97413.48
2017-10-30T13:25:32.452Z,97410.78
2017-10-30T13:27:58.239Z,97424.23
2017-10-30T13:30:23.996Z,97412.91
2017-10-30T13:32:49.778Z,97413.31
2017-10-30T13:35:15.555Z,97411.87
2017-10-30T13:37:41.319Z,97418.28
2017-10-30T13:40:07.117Z,97423.92
2017-10-30T13:42:32.874Z,97422.42
2017-10-30T13:44:58.641Z,97420.96
2017-10-30T13:47:24.416Z,97416.70
2017-10-30T13:49:50.191Z,97425.67
2017-10-30T13:52:15.979Z,97424.03
2017-10-30T13:54:41.758Z,97432.14
2017-10-30T13:57:07.528Z,97436.35
2017-10-30T13:59:33.312Z,97438.70
2017-10-30T14:01:59.066Z,97435.68
2017-10-30T14:04:24.815Z,97435.81
2017-10-30T14:06:50.588Z,97445.42
2017-10-30T14:09:16.358Z,97438.43
2017-10-30T14:11:42.115Z,97433.01
2017-10-30T14:14:07.895Z,97439.10
2017-10-30T14:16:33.670Z,97441.62
2017-10-30T14:18:59.531Z,97446.70
2017-10-30T14:21:25.367Z,97448.96
2017-10-30T14:23:51.151Z,97453.73
2017-10-30T14:26:16.984Z,97447.11
2017-10-30T14:28:42.811Z,97449.98
2017-10-30T14:31:08.600Z,97456.68
2017-10-30T14:33:34.395Z,97455.83
2017-10-30T14:36:00.174Z,97458.98
2017-10-30T14:38:26.016Z,97463.18
2017-10-30T14:40:51.855Z,97463.27
2017-10-30T14:43:17.660Z,97461.88
2017-10-30T14:45:43.504Z,97460.43
2017-10-30T14:48:09.275Z,97457.92
2017-10-30T14:50:35.063Z,97450.27
2017-10-30T14:53:00.871Z,97449.66
2017-10-30T14:55:26.649Z,97460.77
2017-10-30T14:57:52.448Z,97459.09
2017-10-30T15:00:19.028Z,97457.69
2017-10-30T15:02:44.858Z,97462.33
2017-10-30T15:05:10.631Z,97460.43
2017-10-30T15:07:36.411Z,97461.90
2017-10-30T15:10:02.225Z,97463.61
2017-10-30T15:12:27.987Z,97460.05
2017-10-30T15:14:53.779Z,97468.45
2017-10-30T15:17:19.604Z,97474.58
2017-10-30T15:19:45.435Z,97475.45
2017-10-30T15:22:11.407Z,97473.25
2017-10-30T15:24:37.214Z,97476.16
2017-10-30T15:27:03.010Z,97471.68
2017-10-30T15:29:28.823Z,97479.57
2017-10-30T15:31:54.647Z,97478.21
2017-10-30T15:34:20.413Z,97485.19
2017-10-30T15:36:46.187Z,97480.98
2017-10-30T15:39:11.992Z,97480.50
2017-10-30T15:41:37.787Z,97478.48
2017-10-30T15:44:03.559Z,97485.17
2017-10-30T15:46:29.366Z,97483.53
2017-10-30T15:48:55.173Z,97489.45
2017-10-30T15:51:20.969Z,97490.47
2017-10-30T15:53:46.775Z,97491.33
2017-10-30T15:56:12.547Z,97491.82
2017-10-30T15:58:38.341Z,97484.89
2017-10-30T16:01:04.105Z,97491.10
2017-10-30T16:03:29.896Z,97491.74
2017-10-30T16:05:55.703Z,97502.89
2017-10-30T16:08:21.470Z,97505.58
2017-10-30T16:10:47.247Z,97509.73
2017-10-30T16:13:13.035Z,97512.19
2017-10-30T16:15:38.843Z,97513.31
2017-10-30T16:18:04.695Z,97520.25
2017-10-30T16:20:54.684Z,97520.39
2017-10-30T16:23:51.689Z,97523.66
2017-10-30T16:39:43.219Z,97529.11
2017-10-30T16:42:32.135Z,97537.58
2017-10-30T17:01:44.635Z,97565.30
2017-10-30T17:04:34.590Z,97563.84
2017-10-30T17:23:46.327Z,97579.36
2017-10-30T17:26:35.879Z,97580.75
2017-10-30T17:29:32.537Z,97584.08
2017-10-30T17:48:41.326Z,97595.06
2017-10-30T18:07:53.530Z,97601.72
2017-10-30T18:27:28.253Z,97611.95
2017-10-30T18:46:44.583Z,97619.70
2017-10-30T18:49:43.343Z,97624.35
2017-10-30T18:52:09.131Z,97626.18
2017-10-30T19:11:45.479Z,97625.69
2017-10-30T19:14:11.248Z,97629.76
2017-10-30T19:17:01.015Z,97631.02
2017-10-30T19:19:59.040Z,97631.18
2017-10-30T19:39:20.246Z,97643.70
2017-10-30T19:42:17.465Z,97641.08
2017-10-30T19:45:14.491Z,97647.94
2017-10-30T19:48:11.367Z,97645.93
2017-10-30T19:57:48.174Z,97656.72
2017-10-30T20:00:37.615Z,97658.32
2017-10-30T20:03:34.579Z,97661.80
2017-10-30T20:19:25.503Z,97671.95
2017-10-30T20:22:14.524Z,97671.17
2017-10-30T20:25:11.956Z,97675.97
2017-10-30T20:44:23.326Z,97676.39
2017-10-30T20:47:20.239Z,97677.34
2017-10-30T20:50:18.008Z,97682.58
2017-10-30T20:53:15.494Z,97684.24
2017-10-30T20:56:13.212Z,97682.58
2017-10-30T20:59:10.195Z,97684.89
2017-10-30T21:02:06.975Z,97684.39
2017-10-30T21:04:32.780Z,97688.27
2017-10-30T21:07:22.375Z,97684.62
2017-10-30T21:10:20.202Z,97688.84
2017-10-30T21:13:17.265Z,97688.16
2017-10-30T21:32:32.905Z,97666.88
2017-10-30T21:35:29.759Z,97673.83
2017-10-30T21:48:00.252Z,97676.13
2017-10-30T21:50:49.917Z,97668.42
2017-10-30T22:10:00.912Z,97658.16
2017-10-30T22:12:49.871Z,97657.95
2017-10-30T22:15:47.496Z,97666.95
2017-10-30T22:18:44.151Z,97667.14
2017-10-30T22:31:41.419Z,97661.37
2017-10-30T22:34:30.695Z,97656.27
2017-10-30T22:53:43.113Z,97668.58
2017-10-30T22:56:32.092Z,97666.33
2017-10-30T22:59:28.950Z,97659.09
2017-10-30T23:15:34.085Z,97652.09
2017-10-30T23:18:23.864Z,97658.11
2017-10-30T23:21:21.691Z,97651.24
2017-10-30T23:24:18.824Z,97643.70
2017-10-30T23:27:16.711Z,97648.94
2017-10-30T23:30:14.629Z,97653.70
2017-10-30T23:39:23.471Z,97649.55
2017-10-30T23:59:00.153Z,97659.40
